Time;durP1;ratioP1;P1;durP2;ratioP2;P2;SDS_P1;SDS_P2;PMS_P1;PMS_P2;Temp;Humidity;BMP_temperature;BMP_pressure;BME280_temperature;BME280_humidity;BME280_pressure;Samples;Min_cycle;Max_cycle;Signal;HPM_P1;HPM_P2
2023/10/02 00:01:53;;;;;;;12.98;10.20;;;;;;;21.22;53.22;100044.97;5034188;28;20025;-43
2023/10/02 00:04:20;;;;;;;12.23;9.32;;;;;;;20.85;54.31;100042.41;5033702;28;20021;-42
2023/10/02 00:06:50;;;;;;;13.57;9.80;;;;;;;21.22;53.29;100041.44;5033642;28;20021;-44
2023/10/02 00:09:20;;;;;;;12.55;9.60;;;;;;;21.10;53.14;100044.41;5050846;28;20033;-46
2023/10/02 00:11:46;;;;;;;15.23;10.00;;;;;;;21.02;53.42;100039.50;5053833;28;20021;-46
2023/10/02 00:14:19;;;;;;;14.18;9.88;;;;;;;20.54;54.87;100046.81;5053722;28;20473;-44
2023/10/02 00:16:59;;;;;;;18.48;10.15;;;;;;;20.79;54.29;100048.84;5053574;28;20025;-43
2023/10/02 00:19:28;;;;;;;13.80;10.13;;;;;;;21.07;53.71;100053.03;5053925;28;20040;-45
2023/10/02 00:22:03;;;;;;;15.35;10.13;;;;;;;21.23;53.81;100049.31;5053173;28;20040;-43
2023/10/02 00:24:32;;;;;;;16.40;10.02;;;;;;;21.06;53.39;100049.53;5052074;28;20143;-43
2023/10/02 00:26:58;;;;;;;13.52;10.27;;;;;;;20.53;54.85;100045.22;5053631;28;20028;-42
2023/10/02 00:29:26;;;;;;;13.90;10.32;;;;;;;20.49;54.98;100058.44;5053389;28;20118;-43
2023/10/02 00:31:52;;;;;;;14.82;9.88;;;;;;;20.63;54.88;100047.97;5053390;28;20503;-46
2023/10/02 00:34:30;;;;;;;13.25;9.98;;;;;;;20.68;54.65;100043.41;5053240;28;20069;-43
2023/10/02 00:36:56;;;;;;;13.15;10.30;;;;;;;20.90;53.65;100047.81;5053187;28;20049;-45
2023/10/02 00:39:25;;;;;;;15.20;10.30;;;;;;;21.24;53.48;100052.81;5053063;28;20049;-48
2023/10/02 00:47:41;;;;;;;14.68;10.13;;;;;;;20.84;54.10;100049.69;5053096;28;20029;-44
2023/10/02 00:50:18;;;;;;;14.52;9.77;;;;;;;20.99;53.87;100051.66;5052923;28;20025;-44
2023/10/02 00:52:54;;;;;;;15.65;9.90;;;;;;;20.73;54.04;100053.44;5052649;28;20035;-44
2023/10/02 00:55:23;;;;;;;12.73;9.93;;;;;;;20.69;54.21;100055.03;5052574;28;20044;-46
2023/10/02 00:57:52;;;;;;;13.55;10.45;;;;;;;20.80;53.89;100053.19;5052624;28;20036;-43
2023/10/02 01:00:21;;;;;;;13.75;9.82;;;;;;;21.00;53.24;100050.59;5052528;28;20199;-46
2023/10/02 01:02:51;;;;;;;13.40;10.25;;;;;;;20.92;53.48;100053.78;5053257;28;20075;-47
2023/10/02 01:05:30;;;;;;;13.98;10.15;;;;;;;20.88;53.57;100047.28;5052688;28;20496;-43
2023/10/02 01:08:03;;;;;;;13.63;9.93;;;;;;;20.81;53.43;100046.69;5052557;28;20024;-44
2023/10/02 01:10:29;;;;;;;15.27;9.88;;;;;;;20.98;53.42;100052.75;5052463;28;20120;-43
2023/10/02 01:13:05;;;;;;;16.30;9.98;;;;;;;20.77;53.78;100043.75;5052386;28;20029;-44
2023/10/02 01:15:31;;;;;;;13.07;9.63;;;;;;;20.92;53.18;100051.06;5052248;28;20040;-44
2023/10/02 01:18:21;;;;;;;15.85;11.13;;;;;;;20.65;53.89;100049.34;5052385;28;20031;-45
2023/10/02 01:20:51;;;;;;;14.43;10.15;;;;;;;20.57;54.12;100049.81;5052409;28;20040;-43
2023/10/02 01:23:23;;;;;;;12.75;10.00;;;;;;;20.57;54.01;100049.00;5051453;28;20021;-46
2023/10/02 01:25:49;;;;;;;13.70;10.20;;;;;;;20.46;54.62;100059.75;5052169;28;20404;-46
2023/10/02 01:28:20;;;;;;;13.68;9.93;;;;;;;20.83;53.93;100063.50;5051958;28;20094;-43
2023/10/02 01:30:47;;;;;;;14.18;10.23;;;;;;;20.66;54.17;100061.78;5052170;28;20032;-44
2023/10/02 01:35:39;;;;;;;11.88;9.57;;;;;;;20.45;54.51;100051.91;5052298;28;20083;-48
2023/10/02 01:38:12;;;;;;;11.85;9.55;;;;;;;20.24;55.23;100059.09;5052137;28;20028;-43
2023/10/02 01:40:43;;;;;;;13.68;10.02;;;;;;;20.54;54.28;100053.03;5051863;28;20024;-44
2023/10/02 01:43:14;;;;;;;14.90;10.20;;;;;;;20.54;54.48;100052.22;5052096;28;20058;-45
2023/10/02 01:45:44;;;;;;;14.13;10.13;;;;;;;20.48;54.34;100056.78;5052028;28;20108;-44
2023/10/02 01:51:29;;;;;;;14.30;9.88;;;;;;;20.54;54.14;100042.22;5052183;28;20400;-44
2023/10/02 01:53:57;;;;;;;16.73;10.27;;;;;;;20.21;55.37;100041.47;5051738;28;20098;-47
2023/10/02 01:56:29;;;;;;;13.00;10.15;;;;;;;20.26;55.30;100040.72;5051848;28;20032;-45
2023/10/02 01:59:08;;;;;;;13.20;9.63;;;;;;;20.47;55.08;100037.06;5051498;28;20028;-44
2023/10/02 02:01:46;;;;;;;14.15;10.15;;;;;;;20.57;54.52;100039.00;5051449;28;20161;-47
2023/10/02 02:04:15;;;;;;;18.77;10.50;;;;;;;20.54;54.39;100041.41;5051459;28;20039;-45
2023/10/02 02:06:51;;;;;;;13.07;9.82;;;;;;;20.28;54.97;100033.16;5051520;28;20086;-47
2023/10/02 02:09:30;;;;;;;14.10;10.32;;;;;;;20.42;54.35;100033.50;5051174;28;20045;-43
2023/10/02 02:12:05;;;;;;;13.73;9.60;;;;;;;20.28;54.98;100041.28;5051187;28;20469;-44
2023/10/02 02:14:50;;;;;;;13.50;10.40;;;;;;;20.03;55.66;100050.00;5051442;28;20051;-43
2023/10/02 02:17:19;;;;;;;14.02;9.70;;;;;;;20.22;55.30;100040.44;5051479;28;20532;-46
2023/10/02 02:19:48;;;;;;;12.20;9.98;;;;;;;20.24;55.17;100040.97;5051330;28;20024;-45
2023/10/02 02:22:26;;;;;;;13.60;10.18;;;;;;;20.49;54.50;100029.50;5051411;28;20501;-44
2023/10/02 02:24:57;;;;;;;13.40;9.80;;;;;;;20.47;54.45;100030.84;5051299;28;20106;-46
2023/10/02 02:27:23;;;;;;;13.25;9.98;;;;;;;20.38;54.20;100029.72;5051230;28;20029;-46
2023/10/02 02:29:54;;;;;;;13.90;9.90;;;;;;;20.41;54.58;100031.88;5051238;28;20074;-44
2023/10/02 02:32:36;;;;;;;13.80;10.10;;;;;;;20.31;54.74;100038.88;5051489;28;20081;-47
2023/10/02 02:35:06;;;;;;;13.25;9.95;;;;;;;20.61;54.28;100039.31;5050093;28;20021;-47
2023/10/02 02:37:32;;;;;;;14.07;9.63;;;;;;;20.20;55.13;100034.47;5050781;28;20558;-44
2023/10/02 02:42:46;;;;;;;15.32;10.50;;;;;;;20.38;54.78;100025.09;5051371;28;20122;-45
2023/10/02 02:45:28;;;;;;;13.30;9.70;;;;;;;20.28;54.56;100033.16;5050202;28;20170;-44
2023/10/02 02:47:54;;;;;;;12.27;9.25;;;;;;;20.45;54.60;100033.81;5050719;28;20100;-46
2023/10/02 02:50:28;;;;;;;15.88;9.40;;;;;;;20.67;53.43;100033.66;5050858;28;20033;-46
2023/10/02 02:53:16;;;;;;;27.17;17.33;;;;;;;20.71;53.11;100028.53;5050984;28;20033;-46
2023/10/02 02:55:39;;;;;;;19.85;13.30;;;;;;;20.35;54.09;100024.81;5050231;28;20100;-47
2023/10/02 02:58:06;;;;;;;13.45;9.95;;;;;;;20.67;53.40;100024.75;5050654;28;20045;-46
2023/10/02 03:00:35;;;;;;;16.58;9.85;;;;;;;20.68;53.09;100026.38;5050831;28;20049;-47
2023/10/02 03:03:02;;;;;;;10.63;9.35;;;;;;;20.67;53.47;100030.97;5050926;28;20100;-46
2023/10/02 03:05:41;;;;;;;13.73;9.27;;;;;;;20.58;53.47;100029.81;5050846;28;20093;-44
2023/10/02 03:08:08;;;;;;;11.80;9.38;;;;;;;20.39;53.78;100029.44;5050908;28;20017;-43
2023/10/02 03:10:37;;;;;;;16.85;9.52;;;;;;;20.52;53.47;100033.56;5050724;28;20167;-44
2023/10/02 03:13:03;;;;;;;12.70;9.25;;;;;;;20.87;52.87;100034.84;5050623;28;20405;-44
2023/10/02 03:15:46;;;;;;;16.52;9.13;;;;;;;20.54;53.88;100038.72;5050662;28;20377;-46
2023/10/02 03:18:31;;;;;;;10.43;8.65;;;;;;;20.25;53.99;100034.47;5051074;28;20025;-43
2023/10/02 03:23:38;;;;;;;14.90;9.35;;;;;;;20.31;54.23;100054.25;5050876;28;20404;-46
2023/10/02 03:26:27;;;;;;;11.82;8.93;;;;;;;20.41;53.55;100046.22;5051262;28;20028;-43
2023/10/02 03:29:00;;;;;;;14.25;9.25;;;;;;;20.59;53.37;100052.25;5050689;28;20025;-48
2023/10/02 03:31:49;;;;;;;12.68;8.82;;;;;;;20.31;53.79;100060.47;5050367;28;20570;-43
2023/10/02 03:34:32;;;;;;;14.60;9.27;;;;;;;20.55;53.14;100057.38;5050675;28;20052;-45
2023/10/02 03:37:08;;;;;;;11.35;8.98;;;;;;;20.31;53.26;100063.19;5050606;28;20029;-44
2023/10/02 03:42:22;;;;;;;12.35;8.75;;;;;;;20.32;53.61;100072.09;5050746;28;20107;-49
2023/10/02 03:44:54;;;;;;;15.70;9.30;;;;;;;20.16;53.90;100063.06;5050825;28;20029;-47
2023/10/02 03:47:20;;;;;;;11.75;8.43;;;;;;;19.97;54.68;100065.38;5053850;28;20037;-45
2023/10/02 03:49:45;;;;;;;15.38;9.00;;;;;;;20.04;53.89;100067.84;5053754;28;20556;-44
2023/10/02 03:52:14;;;;;;;13.23;8.18;;;;;;;20.17;53.50;100062.00;5053813;28;20385;-47
2023/10/02 03:54:45;;;;;;;11.02;7.95;;;;;;;20.12;53.84;100070.06;5053707;28;20492;-45
2023/10/02 04:00:18;;;;;;;11.85;7.68;;;;;;;20.13;53.26;100077.09;5053210;28;20060;-44
2023/10/02 04:02:47;;;;;;;10.95;8.10;;;;;;;20.05;53.79;100086.50;5053828;28;20152;-45
2023/10/02 04:05:30;;;;;;;;;;;;;;;19.96;54.00;100085.34;5054803;28;20032;-43
2023/10/02 04:08:12;;;;;;;12.75;8.52;;;;;;;20.07;53.71;100092.44;5054682;28;19966;-45
2023/10/02 04:10:51;;;;;;;12.95;8.50;;;;;;;20.60;53.69;100089.88;5054187;28;20040;-42
2023/10/02 04:13:17;;;;;;;16.52;10.00;;;;;;;20.75;52.21;100082.91;5054125;28;20067;-43
2023/10/02 04:15:44;;;;;;;10.38;7.18;;;;;;;20.18;52.63;100085.25;5054477;28;20017;-44
2023/10/02 04:18:09;;;;;;;9.52;6.88;;;;;;;20.17;52.25;100091.72;5053867;28;20098;-43
2023/10/02 04:20:36;;;;;;;10.30;7.30;;;;;;;20.00;52.80;100074.84;5054099;28;20029;-49
2023/10/02 04:23:18;;;;;;;12.40;7.50;;;;;;;19.86;53.03;100094.16;5054122;28;20021;-43
2023/10/02 04:25:44;;;;;;;10.35;6.82;;;;;;;19.61;53.45;100093.88;5053676;28;20413;-46
2023/10/02 04:28:12;;;;;;;12.10;7.70;;;;;;;19.95;52.80;100099.09;5053892;28;20037;-44
2023/10/02 04:30:38;;;;;;;11.63;6.93;;;;;;;20.15;52.99;100093.88;5054219;28;20098;-44
2023/10/02 04:33:08;;;;;;;10.93;7.30;;;;;;;20.52;51.67;100098.44;5053279;28;20061;-43
2023/10/02 04:35:47;;;;;;;8.07;6.65;;;;;;;20.18;51.59;100092.53;5053328;28;20029;-45
2023/10/02 04:38:47;;;;;;;10.95;7.40;;;;;;;20.45;51.17;100108.69;5053767;28;20191;-42
2023/10/02 04:41:03;;;;;;;11.70;7.28;;;;;;;20.36;51.79;100107.53;5052735;28;20032;-44
2023/10/02 04:43:29;;;;;;;13.48;7.70;;;;;;;20.14;51.67;100102.22;5052523;28;20105;-41
2023/10/02 04:46:02;;;;;;;9.15;6.63;;;;;;;20.13;51.88;100106.00;5050966;28;20470;-42
2023/10/02 04:48:38;;;;;;;11.85;7.38;;;;;;;20.02;51.83;100113.19;5050751;28;20057;-43
2023/10/02 04:51:08;;;;;;;10.13;7.47;;;;;;;20.10;51.69;100100.06;5049155;28;20082;-44
2023/10/02 04:53:35;;;;;;;10.20;6.75;;;;;;;20.46;50.85;100113.81;5051282;28;20086;-44
2023/10/02 04:56:07;;;;;;;12.45;7.07;;;;;;;20.51;50.80;100108.44;5045309;28;20114;-44
2023/10/02 04:58:36;;;;;;;8.85;6.68;;;;;;;20.60;50.11;100125.03;5047362;28;20036;-43
2023/10/02 05:03:49;;;;;;;10.73;6.70;;;;;;;20.63;49.80;100116.38;5052942;28;20102;-44
2023/10/02 05:06:39;;;;;;;8.15;6.45;;;;;;;20.61;49.98;100123.94;5052878;28;20033;-44
2023/10/02 05:11:26;;;;;;;12.95;7.55;;;;;;;21.02;48.84;100132.28;5050599;28;20035;-47
2023/10/02 05:16:33;;;;;;;;;;;;;;;21.39;47.67;100135.97;5053257;28;20029;-41
2023/10/02 05:18:59;;;;;;;40.10;22.70;;;;;;;21.60;47.45;100142.28;5051946;28;19923;-45
2023/10/02 05:22:09;;;;;;;10.30;5.88;;;;;;;21.73;46.50;100140.94;5049420;28;20408;-43
2023/10/02 05:24:11;;;;;;;11.88;6.28;;;;;;;21.22;47.81;100155.09;5047726;28;20033;-44
2023/10/02 05:26:39;;;;;;;9.40;5.97;;;;;;;21.31;47.70;100158.94;5053136;28;20128;-43
2023/10/02 05:29:17;;;;;;;11.10;6.00;;;;;;;21.57;46.89;100161.75;5052969;28;20024;-44
2023/10/02 05:31:49;;;;;;;12.07;5.70;;;;;;;21.97;45.78;100165.63;5054173;28;20087;-43
2023/10/02 05:34:21;;;;;;;10.38;5.85;;;;;;;22.33;45.89;100179.25;5063794;28;20622;-42
2023/10/02 05:37:11;;;;;;;10.15;5.85;;;;;;;22.57;45.12;100171.38;5050106;28;20449;-50
2023/10/02 05:39:40;;;;;;;10.23;6.15;;;;;;;22.45;45.57;100166.25;5050801;28;20396;-47
2023/10/02 05:42:16;;;;;;;10.73;5.80;;;;;;;22.49;45.07;100180.88;5068327;28;20524;-46
2023/10/02 05:44:42;;;;;;;11.95;5.20;;;;;;;21.87;45.50;100174.56;5055211;28;20033;-42
2023/10/02 05:47:08;;;;;;;12.90;5.30;;;;;;;21.52;46.06;100172.59;5040501;28;20055;-47
2023/10/02 05:49:43;;;;;;;9.75;5.28;;;;;;;21.93;45.47;100180.78;5032143;28;20037;-47
2023/10/02 05:52:11;;;;;;;8.32;5.20;;;;;;;21.77;46.04;100183.47;5049988;28;20025;-48
2023/10/02 05:54:36;;;;;;;10.10;5.30;;;;;;;21.83;45.04;100193.22;5050827;28;20485;-45
2023/10/02 05:57:09;;;;;;;9.02;5.13;;;;;;;22.35;44.83;100196.03;5051614;28;20039;-49
2023/10/02 05:59:45;;;;;;;13.25;5.68;;;;;;;22.99;42.68;100203.59;5060986;28;20049;-46
2023/10/02 06:02:12;;;;;;;8.25;5.18;;;;;;;23.26;42.51;100207.06;5064487;28;20045;-41
2023/10/02 06:04:43;;;;;;;8.80;4.80;;;;;;;23.82;40.67;100204.16;5052691;28;20021;-40
2023/10/02 06:07:12;;;;;;;7.45;5.05;;;;;;;24.19;39.55;100206.34;5065276;28;20029;-40
2023/10/02 06:09:44;;;;;;;8.20;4.60;;;;;;;23.93;39.26;100210.31;5051803;28;20513;-42
2023/10/02 06:12:13;;;;;;;6.88;4.78;;;;;;;23.77;39.79;100209.56;5065802;28;20075;-40
2023/10/02 06:14:39;;;;;;;8.25;4.75;;;;;;;24.11;39.25;100217.81;5052938;28;20066;-39
2023/10/02 06:17:11;;;;;;;9.05;4.75;;;;;;;22.83;40.79;100210.94;5052305;28;20029;-41
2023/10/02 06:19:42;;;;;;;9.27;4.50;;;;;;;23.33;40.42;100213.84;5061089;28;20044;-41
2023/10/02 06:22:09;;;;;;;6.38;4.40;;;;;;;23.31;40.46;100209.78;5068852;28;20089;-43
2023/10/02 06:24:35;;;;;;;7.90;4.68;;;;;;;23.75;39.75;100228.88;5054015;28;20048;-39
2023/10/02 06:27:05;;;;;;;8.02;4.32;;;;;;;24.07;38.79;100227.63;5066169;28;20021;-41
2023/10/02 06:29:33;;;;;;;9.75;4.68;;;;;;;24.42;38.40;100219.50;5060558;28;20028;-42
2023/10/02 06:31:59;;;;;;;6.03;4.35;;;;;;;24.03;38.75;100223.84;5058025;28;20106;-46
2023/10/02 06:34:38;;;;;;;6.85;4.78;;;;;;;23.69;39.50;100218.31;5067408;28;20043;-45
2023/10/02 06:37:13;;;;;;;9.23;5.43;;;;;;;24.24;39.19;100229.13;5056572;28;20063;-45
2023/10/02 06:40:13;;;;;;;7.93;4.93;;;;;;;24.91;38.11;100219.34;5060659;28;20021;-43
2023/10/02 06:42:48;;;;;;;7.40;4.90;;;;;;;25.29;37.08;100218.72;5067618;28;20367;-44
2023/10/02 06:45:18;;;;;;;10.45;4.95;;;;;;;25.62;36.71;100230.56;5058029;28;20059;-44
2023/10/02 06:47:44;;;;;;;7.85;4.82;;;;;;;24.82;36.30;100228.44;5057988;28;20560;-43
2023/10/02 06:52:57;;;;;;;19.65;5.82;;;;;;;23.85;38.02;100238.09;5037720;28;20097;-42
2023/10/02 06:55:25;;;;;;;6.35;3.95;;;;;;;23.61;38.37;100238.72;5050890;28;20459;-41
2023/10/02 06:57:53;;;;;;;7.97;4.25;;;;;;;23.97;37.87;100238.56;5034069;28;20482;-42
2023/10/02 07:00:23;;;;;;;9.27;4.82;;;;;;;24.83;36.58;100236.31;5070799;28;20055;-45
2023/10/02 07:02:58;;;;;;;8.63;4.43;;;;;;;24.67;36.56;100227.47;5071668;28;20204;-45
2023/10/02 07:05:32;;;;;;;11.80;4.90;;;;;;;25.35;35.56;100231.16;5071677;28;20020;-43
2023/10/02 07:08:17;;;;;;;9.77;4.80;;;;;;;25.50;35.47;100241.88;5065211;28;20047;-45
2023/10/02 07:10:43;;;;;;;8.00;4.53;;;;;;;25.95;34.67;100238.91;5050544;28;20377;-45
2023/10/02 07:13:21;;;;;;;10.68;4.70;;;;;;;26.01;34.62;100242.34;5050932;28;20024;-45
2023/10/02 07:15:49;;;;;;;7.47;4.43;;;;;;;25.52;35.00;100238.88;5051234;28;20021;-44
2023/10/02 07:18:15;;;;;;;7.70;4.07;;;;;;;25.63;34.33;100239.56;5031210;28;20025;-45
2023/10/02 07:20:44;;;;;;;9.88;4.30;;;;;;;26.00;33.95;100240.72;5051826;28;20029;-44
2023/10/02 07:23:19;;;;;;;9.95;4.32;;;;;;;26.28;33.75;100238.94;5055270;28;20372;-43
2023/10/02 07:25:50;;;;;;;10.10;4.00;;;;;;;26.30;33.29;100239.47;5054732;28;20496;-44
2023/10/02 07:28:22;;;;;;;7.05;4.20;;;;;;;26.36;33.43;100243.72;5055258;28;20028;-43
2023/10/02 07:30:50;;;;;;;8.38;4.20;;;;;;;26.28;32.87;100244.41;5054705;28;20472;-46
2023/10/02 07:33:18;;;;;;;8.13;4.30;;;;;;;26.73;32.57;100242.06;5055092;28;20025;-43
2023/10/02 07:35:52;;;;;;;6.97;3.97;;;;;;;26.67;32.03;100244.09;5054947;28;20259;-42
2023/10/02 07:38:21;;;;;;;8.07;4.40;;;;;;;26.19;32.43;100243.44;5054698;28;20108;-44
2023/10/02 07:40:48;;;;;;;;;;;;;;;26.94;31.56;100244.44;5055210;28;20079;-44
2023/10/02 07:43:21;;;;;;;7.95;4.18;;;;;;;27.04;31.30;100233.34;5054850;28;19987;-46
2023/10/02 07:48:51;;;;;;;10.13;4.00;;;;;;;26.83;31.05;100230.16;5066348;28;20029;-43
2023/10/02 07:51:20;;;;;;;14.23;4.43;;;;;;;27.13;30.50;100236.97;5074465;28;20024;-44
2023/10/02 07:53:48;;;;;;;6.55;3.90;;;;;;;27.50;30.28;100235.19;5074403;28;20024;-44
2023/10/02 07:56:16;;;;;;;8.90;4.00;;;;;;;28.15;29.65;100236.78;5054402;28;20028;-43
2023/10/02 07:58:43;;;;;;;9.95;3.90;;;;;;;27.49;29.83;100228.91;5054062;28;20392;-43
2023/10/02 08:01:12;;;;;;;8.05;3.88;;;;;;;27.43;29.84;100245.72;5054133;28;20057;-45
2023/10/02 08:03:43;;;;;;;7.15;4.15;;;;;;;27.65;29.77;100245.78;5053874;28;20056;-41
2023/10/02 08:06:23;;;;;;;6.80;4.13;;;;;;;28.26;29.24;100251.84;5053835;28;20036;-42
2023/10/02 08:11:33;;;;;;;7.45;4.03;;;;;;;27.36;29.90;100246.13;5054441;28;20027;-44
2023/10/02 08:14:00;;;;;;;6.35;3.50;;;;;;;27.51;29.74;100250.44;5066483;28;20365;-44
2023/10/02 08:16:26;;;;;;;8.18;4.03;;;;;;;27.82;29.25;100252.56;5073737;28;20047;-45
2023/10/02 08:18:58;;;;;;;7.60;4.38;;;;;;;28.15;29.24;100253.19;5069951;28;20404;-45
2023/10/02 08:21:46;;;;;;;8.82;4.15;;;;;;;28.27;28.92;100250.75;5053947;28;20029;-42
2023/10/02 08:24:13;;;;;;;7.57;3.85;;;;;;;28.93;28.25;100243.94;5072580;28;20048;-43
2023/10/02 08:26:40;;;;;;;8.55;4.28;;;;;;;29.19;27.80;100244.91;5073710;28;20115;-43
2023/10/02 08:29:17;;;;;;;7.40;4.28;;;;;;;29.08;27.91;100239.97;5073725;28;20029;-41
2023/10/02 08:31:47;;;;;;;5.88;4.00;;;;;;;29.11;27.72;100245.66;5073871;28;20028;-42
2023/10/02 08:34:19;;;;;;;9.50;3.92;;;;;;;28.64;27.93;100243.28;5074373;28;20020;-45
2023/10/02 08:36:54;;;;;;;6.72;4.07;;;;;;;28.60;27.62;100239.56;5074013;28;20028;-44
2023/10/02 08:39:22;;;;;;;6.28;4.20;;;;;;;28.43;28.52;100242.16;5072292;28;20021;-45
2023/10/02 08:41:50;;;;;;;6.20;4.30;;;;;;;28.60;27.80;100242.31;5053948;28;20028;-48
2023/10/02 08:44:16;;;;;;;7.57;4.43;;;;;;;28.60;27.70;100234.09;5047741;28;20095;-45
2023/10/02 08:46:45;;;;;;;8.82;4.50;;;;;;;28.99;27.79;100228.97;5051693;28;20036;-50
2023/10/02 08:49:12;;;;;;;7.50;4.25;;;;;;;28.95;27.57;100217.03;5052922;28;20071;-44
2023/10/02 08:51:38;;;;;;;9.07;4.18;;;;;;;28.35;28.35;100223.72;5053074;28;20032;-42
2023/10/02 08:54:05;;;;;;;7.68;4.38;;;;;;;28.67;28.19;100222.69;5051980;28;20104;-43
2023/10/02 08:56:44;;;;;;;9.30;4.18;;;;;;;29.32;27.82;100212.19;5052871;28;20381;-45
2023/10/02 08:59:35;;;;;;;9.45;4.30;;;;;;;28.68;27.63;100218.84;5050475;28;20016;-47
2023/10/02 09:02:16;;;;;;;9.77;4.35;;;;;;;28.46;27.72;100214.97;5051896;28;20033;-43
2023/10/02 09:05:06;;;;;;;9.35;4.25;;;;;;;29.20;27.33;100216.34;5051998;28;20036;-43
2023/10/02 09:07:45;;;;;;;7.43;4.03;;;;;;;29.24;27.06;100200.09;5052153;28;20074;-44
2023/10/02 09:10:18;;;;;;;8.95;4.75;;;;;;;29.39;27.00;100212.56;5051941;28;20064;-45
2023/10/02 09:12:50;;;;;;;10.20;4.57;;;;;;;29.18;27.30;100217.81;5052075;28;20020;-43
2023/10/02 09:15:29;;;;;;;9.30;4.55;;;;;;;29.94;26.16;100213.97;5052042;28;20025;-44
2023/10/02 09:17:57;;;;;;;9.75;4.25;;;;;;;28.85;26.92;100207.16;5052237;28;20090;-42
2023/10/02 09:20:38;;;;;;;10.63;4.55;;;;;;;28.20;27.69;100216.72;5052204;28;20467;-43
2023/10/02 09:23:08;;;;;;;7.82;4.38;;;;;;;28.69;27.32;100214.97;5044724;28;20109;-45
2023/10/02 09:25:37;;;;;;;7.63;4.63;;;;;;;29.17;26.55;100202.50;5037891;28;20026;-41
2023/10/02 09:28:13;;;;;;;9.07;4.78;;;;;;;29.16;26.79;100207.16;5032220;28;20112;-45
2023/10/02 09:30:41;;;;;;;9.70;4.60;;;;;;;29.19;26.46;100203.78;5032421;28;20102;-43
2023/10/02 09:33:22;;;;;;;8.80;4.70;;;;;;;29.18;26.76;100201.38;5030615;28;20112;-43
2023/10/02 09:35:51;;;;;;;7.53;4.85;;;;;;;29.92;25.63;100205.25;5031218;28;20104;-44
2023/10/02 09:38:17;;;;;;;8.02;4.80;;;;;;;30.56;25.52;100194.38;5031983;28;20588;-43
2023/10/02 09:43:33;;;;;;;7.30;4.53;;;;;;;30.07;25.30;100198.47;5029538;28;20036;-44
2023/10/02 09:46:00;;;;;;;8.85;5.22;;;;;;;29.46;25.74;100201.94;5029588;28;20032;-44
2023/10/02 09:48:46;;;;;;;9.05;4.70;;;;;;;29.28;26.42;100206.53;5030028;28;20037;-46
2023/10/02 09:51:30;;;;;;;6.70;4.50;;;;;;;29.14;26.63;100195.72;5030154;28;20059;-44
2023/10/02 09:54:06;;;;;;;8.70;4.45;;;;;;;29.05;27.24;100195.66;5030057;28;20033;-44
2023/10/02 09:57:05;;;;;;;7.55;4.30;;;;;;;29.04;26.76;100191.28;5030524;28;20021;-46
2023/10/02 09:59:45;;;;;;;8.35;4.85;;;;;;;29.26;26.63;100192.34;5031675;28;20041;-44
2023/10/02 10:02:49;;;;;;;8.35;4.40;;;;;;;29.07;26.76;100173.41;5031462;28;20497;-45
2023/10/02 10:08:17;;;;;;;11.07;4.78;;;;;;;29.00;27.05;100182.09;5021271;28;20462;-47
2023/10/02 10:10:52;;;;;;;7.32;4.60;;;;;;;28.94;26.61;100169.69;5031860;28;20036;-43
2023/10/02 10:13:34;;;;;;;10.82;5.13;;;;;;;29.54;26.20;100161.94;5031411;28;20025;-45
2023/10/02 10:16:21;;;;;;;9.70;4.72;;;;;;;29.65;26.05;100162.47;5031702;28;20033;-45
2023/10/02 10:22:04;;;;;;;7.72;4.50;;;;;;;29.31;26.24;100158.53;5051506;28;20119;-44
2023/10/02 10:24:33;;;;;;;7.95;5.13;;;;;;;29.57;25.63;100150.34;5051620;28;20100;-46
2023/10/02 10:27:01;;;;;;;6.50;4.68;;;;;;;29.60;26.17;100153.22;5051105;28;20151;-46
2023/10/02 10:29:42;;;;;;;9.30;4.80;;;;;;;29.14;26.45;100154.63;5050926;28;20103;-45
2023/10/02 10:32:24;;;;;;;7.88;4.68;;;;;;;29.89;25.60;100154.59;5050661;28;20472;-44
2023/10/02 10:35:11;;;;;;;9.93;5.55;;;;;;;29.77;25.64;100141.50;5050749;28;20334;-49
2023/10/02 10:37:47;;;;;;;8.52;4.75;;;;;;;30.10;25.40;100142.94;5051027;28;20025;-47
2023/10/02 10:43:18;;;;;;;9.43;4.63;;;;;;;28.93;25.87;100142.59;5050829;28;20024;-46
2023/10/02 10:45:48;;;;;;;7.20;4.90;;;;;;;29.36;25.47;100134.53;5050721;28;20025;-45
2023/10/02 10:48:21;;;;;;;9.57;4.72;;;;;;;29.91;24.79;100133.13;5051107;28;20025;-45
2023/10/02 10:50:59;;;;;;;6.55;4.47;;;;;;;30.18;24.73;100128.41;5050734;28;20091;-46
2023/10/02 10:53:26;;;;;;;7.93;4.60;;;;;;;30.52;24.29;100130.28;5050496;28;20465;-47
2023/10/02 10:55:54;;;;;;;7.95;4.60;;;;;;;30.82;24.58;100126.75;5052271;28;20021;-46
2023/10/02 10:58:35;;;;;;;;;;;;;;;30.24;24.63;100131.78;5055422;28;20033;-47
2023/10/02 11:01:05;;;;;;;9.23;4.60;;;;;;;30.09;24.90;100125.66;5054578;28;19920;-45
2023/10/02 11:03:30;;;;;;;7.38;4.28;;;;;;;30.79;24.18;100114.50;5054327;28;20083;-44
2023/10/02 11:06:03;;;;;;;8.20;4.50;;;;;;;30.11;23.69;100114.38;5054288;28;20025;-43
2023/10/02 11:08:30;;;;;;;7.30;4.45;;;;;;;30.55;23.65;100112.34;5054294;28;20091;-43
2023/10/02 11:11:18;;;;;;;9.57;5.07;;;;;;;31.00;22.95;100114.59;5054193;28;20637;-45
2023/10/02 11:13:55;;;;;;;8.02;4.40;;;;;;;30.30;23.60;100103.81;5054664;28;20051;-45
2023/10/02 11:16:36;;;;;;;8.40;4.65;;;;;;;30.70;23.26;100100.81;5054636;28;20035;-44
2023/10/02 11:19:21;;;;;;;7.13;4.65;;;;;;;31.70;22.49;100103.94;5054764;28;20028;-46
2023/10/02 11:22:22;;;;;;;9.00;5.65;;;;;;;31.43;21.50;100101.69;5054452;28;20021;-46
2023/10/02 11:24:51;;;;;;;6.85;4.40;;;;;;;31.18;22.68;100110.56;5054143;28;20534;-43
2023/10/02 11:27:17;;;;;;;6.80;5.07;;;;;;;31.34;22.35;100099.81;5054481;28;20033;-43
2023/10/02 11:29:45;;;;;;;8.05;5.15;;;;;;;31.22;22.81;100101.66;5054575;28;20040;-44
2023/10/02 11:32:23;;;;;;;7.38;4.40;;;;;;;30.67;22.57;100089.66;5054540;28;20024;-49
2023/10/02 11:34:50;;;;;;;8.48;4.88;;;;;;;31.01;22.63;100090.66;5054477;28;20048;-44
2023/10/02 11:37:16;;;;;;;8.02;4.47;;;;;;;31.24;22.47;100093.91;5054463;28;20029;-44
2023/10/02 11:39:42;;;;;;;8.35;4.38;;;;;;;31.71;21.57;100089.00;5054020;28;20040;-44
2023/10/02 11:42:09;;;;;;;7.10;4.57;;;;;;;31.73;21.48;100094.19;5054004;28;20058;-44
2023/10/02 11:44:34;;;;;;;10.05;4.88;;;;;;;32.04;21.58;100095.69;5054012;28;20120;-41
2023/10/02 11:46:59;;;;;;;10.70;5.15;;;;;;;32.15;21.91;100094.91;5053243;28;20179;-45
2023/10/02 11:49:29;;;;;;;8.10;4.90;;;;;;;32.16;21.50;100098.50;5054010;28;20492;-43
2023/10/02 11:52:00;;;;;;;8.02;4.57;;;;;;;32.64;21.38;100087.91;5054042;28;20086;-46
2023/10/02 11:54:26;;;;;;;7.20;4.70;;;;;;;31.41;21.84;100095.72;5053847;28;20107;-44
2023/10/02 11:56:52;;;;;;;8.85;4.90;;;;;;;31.84;22.17;100089.88;5053287;28;20024;-42
2023/10/02 11:59:17;;;;;;;7.57;4.70;;;;;;;31.95;22.25;100096.56;5053517;28;20032;-43
2023/10/02 12:01:45;;;;;;;8.95;4.70;;;;;;;32.47;21.74;100088.91;5053864;28;20021;-43
2023/10/02 12:04:10;;;;;;;9.65;4.85;;;;;;;31.81;21.53;100085.03;5053537;28;20025;-45
2023/10/02 12:06:38;;;;;;;9.75;5.90;;;;;;;31.81;21.59;100092.50;5052967;28;20135;-47
2023/10/02 12:09:04;;;;;;;9.30;5.27;;;;;;;32.12;21.62;100089.28;5053453;28;20401;-44
2023/10/02 12:11:33;;;;;;;9.20;4.93;;;;;;;32.28;21.71;100089.44;5053745;28;20104;-44
2023/10/02 12:13:59;;;;;;;7.53;4.95;;;;;;;32.72;21.01;100084.22;5053488;28;20036;-44
2023/10/02 12:16:25;;;;;;;6.93;4.70;;;;;;;32.89;20.55;100085.94;5053448;28;20029;-46
2023/10/02 12:18:51;;;;;;;11.23;4.97;;;;;;;32.96;20.06;100079.84;5053787;28;20028;-42
2023/10/02 12:21:19;;;;;;;9.52;4.65;;;;;;;32.44;20.15;100084.06;5053659;28;20079;-46
2023/10/02 12:23:46;;;;;;;10.23;4.40;;;;;;;32.35;19.54;100078.69;5053318;28;20106;-42
2023/10/02 12:26:21;;;;;;;9.57;4.80;;;;;;;32.34;19.53;100086.13;5053453;28;20021;-43
2023/10/02 12:28:47;;;;;;;9.18;4.57;;;;;;;32.36;19.03;100079.47;5053409;28;20514;-43
2023/10/02 12:31:17;;;;;;;7.68;4.63;;;;;;;32.10;18.43;100072.31;5053301;28;20021;-44
2023/10/02 12:33:48;;;;;;;7.10;4.63;;;;;;;31.93;18.97;100074.09;5052792;28;20024;-47
2023/10/02 12:36:17;;;;;;;7.32;4.88;;;;;;;31.60;19.85;100073.28;5053343;28;20029;-45